sensor_id;sensor_type;location;lat;lon;timestamp;P1;durP1;ratioP1;P2;durP2;ratioP2
22652;SDS011;11493;43.344;26.226;2022-09-09T00:00:15;8.18;;;3.60;;
22652;SDS011;11493;43.344;26.226;2022-09-09T00:02:45;7.63;;;3.83;;
22652;SDS011;11493;43.344;26.226;2022-09-09T00:05:33;5.68;;;3.75;;
22652;SDS011;11493;43.344;26.226;2022-09-09T00:08:18;8.95;;;4.47;;
22652;SDS011;11493;43.344;26.226;2022-09-09T00:10:48;6.10;;;3.67;;
22652;SDS011;11493;43.344;26.226;2022-09-09T00:13:28;4.13;;;3.60;;
22652;SDS011;11493;43.344;26.226;2022-09-09T00:21:33;5.00;;;3.70;;
22652;SDS011;11493;43.344;26.226;2022-09-09T00:24:10;5.68;;;3.67;;
22652;SDS011;11493;43.344;26.226;2022-09-09T00:26:53;4.10;;;3.78;;
22652;SDS011;11493;43.344;26.226;2022-09-09T00:29:35;6.38;;;4.20;;
22652;SDS011;11493;43.344;26.226;2022-09-09T00:32:20;5.68;;;4.15;;
22652;SDS011;11493;43.344;26.226;2022-09-09T00:34:51;3.75;;;3.38;;
22652;SDS011;11493;43.344;26.226;2022-09-09T00:37:24;8.55;;;3.88;;
22652;SDS011;11493;43.344;26.226;2022-09-09T00:39:54;4.18;;;3.78;;
22652;SDS011;11493;43.344;26.226;2022-09-09T00:42:43;4.18;;;3.78;;
22652;SDS011;11493;43.344;26.226;2022-09-09T00:47:52;4.88;;;3.90;;
22652;SDS011;11493;43.344;26.226;2022-09-09T00:56:23;5.57;;;3.40;;
22652;SDS011;11493;43.344;26.226;2022-09-09T01:01:39;4.30;;;3.70;;
22652;SDS011;11493;43.344;26.226;2022-09-09T01:04:10;5.65;;;3.60;;
22652;SDS011;11493;43.344;26.226;2022-09-09T01:06:43;5.63;;;3.80;;
22652;SDS011;11493;43.344;26.226;2022-09-09T01:09:24;5.30;;;3.20;;
22652;SDS011;11493;43.344;26.226;2022-09-09T01:12:12;9.65;;;3.58;;
22652;SDS011;11493;43.344;26.226;2022-09-09T01:14:48;6.75;;;4.28;;
22652;SDS011;11493;43.344;26.226;2022-09-09T01:17:26;4.40;;;3.58;;
22652;SDS011;11493;43.344;26.226;2022-09-09T01:20:28;4.07;;;3.63;;
22652;SDS011;11493;43.344;26.226;2022-09-09T01:29:10;4.43;;;3.83;;
22652;SDS011;11493;43.344;26.226;2022-09-09T01:31:42;4.05;;;3.75;;
22652;SDS011;11493;43.344;26.226;2022-09-09T01:34:36;6.72;;;3.78;;
22652;SDS011;11493;43.344;26.226;2022-09-09T01:37:08;4.55;;;4.15;;
22652;SDS011;11493;43.344;26.226;2022-09-09T01:39:39;3.95;;;3.65;;
22652;SDS011;11493;43.344;26.226;2022-09-09T01:42:13;6.65;;;3.78;;
22652;SDS011;11493;43.344;26.226;2022-09-09T01:44:43;9.40;;;3.78;;
22652;SDS011;11493;43.344;26.226;2022-09-09T01:47:11;4.80;;;4.40;;
22652;SDS011;11493;43.344;26.226;2022-09-09T01:50:17;5.03;;;3.55;;
22652;SDS011;11493;43.344;26.226;2022-09-09T01:52:48;5.95;;;3.58;;
22652;SDS011;11493;43.344;26.226;2022-09-09T01:55:25;9.85;;;3.95;;
22652;SDS011;11493;43.344;26.226;2022-09-09T02:00:30;6.45;;;4.47;;
22652;SDS011;11493;43.344;26.226;2022-09-09T02:08:32;6.97;;;4.07;;
22652;SDS011;11493;43.344;26.226;2022-09-09T02:13:52;3.85;;;3.47;;
22652;SDS011;11493;43.344;26.226;2022-09-09T02:22:05;6.15;;;3.42;;
22652;SDS011;11493;43.344;26.226;2022-09-09T02:24:35;3.70;;;3.40;;
22652;SDS011;11493;43.344;26.226;2022-09-09T02:27:12;5.80;;;3.45;;
22652;SDS011;11493;43.344;26.226;2022-09-09T02:32:20;5.22;;;3.70;;
22652;SDS011;11493;43.344;26.226;2022-09-09T02:34:53;5.35;;;3.70;;
22652;SDS011;11493;43.344;26.226;2022-09-09T02:37:27;6.05;;;4.18;;
22652;SDS011;11493;43.344;26.226;2022-09-09T02:40:01;5.05;;;4.65;;
22652;SDS011;11493;43.344;26.226;2022-09-09T02:42:43;12.07;;;5.80;;
22652;SDS011;11493;43.344;26.226;2022-09-09T02:45:13;6.80;;;5.45;;
22652;SDS011;11493;43.344;26.226;2022-09-09T02:50:24;6.28;;;5.68;;
22652;SDS011;11493;43.344;26.226;2022-09-09T02:53:10;10.68;;;5.90;;
22652;SDS011;11493;43.344;26.226;2022-09-09T02:55:56;8.48;;;5.32;;
22652;SDS011;11493;43.344;26.226;2022-09-09T02:58:31;6.13;;;4.88;;
22652;SDS011;11493;43.344;26.226;2022-09-09T03:01:03;9.23;;;4.95;;
22652;SDS011;11493;43.344;26.226;2022-09-09T03:03:31;4.60;;;4.28;;
22652;SDS011;11493;43.344;26.226;2022-09-09T03:06:02;7.10;;;4.07;;
22652;SDS011;11493;43.344;26.226;2022-09-09T03:08:29;6.20;;;4.47;;
22652;SDS011;11493;43.344;26.226;2022-09-09T03:10:58;7.57;;;4.35;;
22652;SDS011;11493;43.344;26.226;2022-09-09T03:13:30;5.57;;;3.65;;
22652;SDS011;11493;43.344;26.226;2022-09-09T03:15:57;6.13;;;3.65;;
22652;SDS011;11493;43.344;26.226;2022-09-09T03:18:28;4.60;;;3.63;;
22652;SDS011;11493;43.344;26.226;2022-09-09T03:20:56;3.45;;;3.10;;
22652;SDS011;11493;43.344;26.226;2022-09-09T03:23:25;6.10;;;3.03;;
22652;SDS011;11493;43.344;26.226;2022-09-09T03:25:52;4.15;;;3.42;;
22652;SDS011;11493;43.344;26.226;2022-09-09T03:28:28;6.88;;;3.20;;
22652;SDS011;11493;43.344;26.226;2022-09-09T03:31:01;5.70;;;4.68;;
22652;SDS011;11493;43.344;26.226;2022-09-09T03:33:34;7.35;;;5.57;;
22652;SDS011;11493;43.344;26.226;2022-09-09T03:36:03;7.75;;;6.15;;
22652;SDS011;11493;43.344;26.226;2022-09-09T03:38:35;7.97;;;5.80;;
22652;SDS011;11493;43.344;26.226;2022-09-09T03:41:03;9.18;;;4.78;;
22652;SDS011;11493;43.344;26.226;2022-09-09T03:43:33;8.60;;;5.18;;
22652;SDS011;11493;43.344;26.226;2022-09-09T03:46:00;7.18;;;5.53;;
22652;SDS011;11493;43.344;26.226;2022-09-09T03:48:29;8.00;;;7.20;;
22652;SDS011;11493;43.344;26.226;2022-09-09T03:50:57;4.80;;;4.30;;
22652;SDS011;11493;43.344;26.226;2022-09-09T03:56:01;8.50;;;5.32;;
22652;SDS011;11493;43.344;26.226;2022-09-09T03:58:30;6.72;;;5.47;;
22652;SDS011;11493;43.344;26.226;2022-09-09T04:01:04;8.13;;;4.95;;
22652;SDS011;11493;43.344;26.226;2022-09-09T04:03:37;8.63;;;4.72;;
22652;SDS011;11493;43.344;26.226;2022-09-09T04:06:05;9.45;;;5.05;;
22652;SDS011;11493;43.344;26.226;2022-09-09T04:08:34;7.63;;;5.22;;
22652;SDS011;11493;43.344;26.226;2022-09-09T04:11:02;11.35;;;5.32;;
22652;SDS011;11493;43.344;26.226;2022-09-09T04:13:34;10.93;;;4.75;;
22652;SDS011;11493;43.344;26.226;2022-09-09T04:16:06;8.85;;;4.30;;
22652;SDS011;11493;43.344;26.226;2022-09-09T04:18:35;10.07;;;4.82;;
22652;SDS011;11493;43.344;26.226;2022-09-09T04:21:03;12.40;;;3.90;;
22652;SDS011;11493;43.344;26.226;2022-09-09T04:23:32;9.10;;;4.20;;
22652;SDS011;11493;43.344;26.226;2022-09-09T04:26:01;6.75;;;4.00;;
22652;SDS011;11493;43.344;26.226;2022-09-09T04:28:30;6.75;;;5.43;;
22652;SDS011;11493;43.344;26.226;2022-09-09T04:33:57;9.85;;;4.55;;
22652;SDS011;11493;43.344;26.226;2022-09-09T04:36:25;7.28;;;4.57;;
22652;SDS011;11493;43.344;26.226;2022-09-09T04:38:57;13.93;;;6.95;;
22652;SDS011;11493;43.344;26.226;2022-09-09T04:41:25;6.65;;;4.25;;
22652;SDS011;11493;43.344;26.226;2022-09-09T04:43:53;11.40;;;4.53;;
22652;SDS011;11493;43.344;26.226;2022-09-09T04:46:21;8.57;;;4.97;;
22652;SDS011;11493;43.344;26.226;2022-09-09T04:48:50;11.70;;;4.85;;
22652;SDS011;11493;43.344;26.226;2022-09-09T04:51:20;10.90;;;4.57;;
22652;SDS011;11493;43.344;26.226;2022-09-09T04:53:48;9.55;;;4.53;;
22652;SDS011;11493;43.344;26.226;2022-09-09T04:56:18;17.08;;;4.78;;
22652;SDS011;11493;43.344;26.226;2022-09-09T04:58:55;7.75;;;4.03;;
22652;SDS011;11493;43.344;26.226;2022-09-09T05:01:30;12.85;;;5.40;;
22652;SDS011;11493;43.344;26.226;2022-09-09T05:04:02;14.88;;;4.50;;
22652;SDS011;11493;43.344;26.226;2022-09-09T05:06:31;10.60;;;3.97;;
22652;SDS011;11493;43.344;26.226;2022-09-09T05:09:00;15.75;;;3.67;;
22652;SDS011;11493;43.344;26.226;2022-09-09T05:11:29;6.63;;;3.13;;
22652;SDS011;11493;43.344;26.226;2022-09-09T05:14:10;7.55;;;4.47;;
22652;SDS011;11493;43.344;26.226;2022-09-09T05:16:39;13.40;;;3.30;;
22652;SDS011;11493;43.344;26.226;2022-09-09T05:19:07;4.90;;;3.53;;
22652;SDS011;11493;43.344;26.226;2022-09-09T05:21:42;7.60;;;3.38;;
22652;SDS011;11493;43.344;26.226;2022-09-09T05:24:11;4.82;;;3.10;;
22652;SDS011;11493;43.344;26.226;2022-09-09T05:26:39;9.73;;;3.30;;
22652;SDS011;11493;43.344;26.226;2022-09-09T05:29:07;5.72;;;3.05;;
22652;SDS011;11493;43.344;26.226;2022-09-09T05:31:35;7.82;;;3.30;;
22652;SDS011;11493;43.344;26.226;2022-09-09T05:34:08;10.23;;;3.33;;
22652;SDS011;11493;43.344;26.226;2022-09-09T05:36:35;5.10;;;3.10;;
22652;SDS011;11493;43.344;26.226;2022-09-09T05:39:03;7.78;;;2.72;;
22652;SDS011;11493;43.344;26.226;2022-09-09T05:41:32;12.93;;;3.60;;
22652;SDS011;11493;43.344;26.226;2022-09-09T05:44:01;5.53;;;3.20;;
22652;SDS011;11493;43.344;26.226;2022-09-09T05:46:30;9.88;;;3.20;;
22652;SDS011;11493;43.344;26.226;2022-09-09T05:48:57;8.50;;;3.55;;
22652;SDS011;11493;43.344;26.226;2022-09-09T05:51:29;5.07;;;3.05;;
22652;SDS011;11493;43.344;26.226;2022-09-09T05:54:05;5.50;;;3.67;;
22652;SDS011;11493;43.344;26.226;2022-09-09T05:59:06;4.97;;;3.08;;
22652;SDS011;11493;43.344;26.226;2022-09-09T06:01:34;9.20;;;3.30;;
22652;SDS011;11493;43.344;26.226;2022-09-09T06:04:12;5.35;;;2.80;;
22652;SDS011;11493;43.344;26.226;2022-09-09T06:06:40;6.38;;;2.45;;
22652;SDS011;11493;43.344;26.226;2022-09-09T06:09:12;9.40;;;3.17;;
22652;SDS011;11493;43.344;26.226;2022-09-09T06:11:42;9.90;;;2.88;;
22652;SDS011;11493;43.344;26.226;2022-09-09T06:14:11;12.98;;;2.55;;
22652;SDS011;11493;43.344;26.226;2022-09-09T06:16:39;6.68;;;2.60;;
22652;SDS011;11493;43.344;26.226;2022-09-09T06:19:18;7.00;;;2.17;;
22652;SDS011;11493;43.344;26.226;2022-09-09T06:21:48;6.10;;;2.22;;
22652;SDS011;11493;43.344;26.226;2022-09-09T06:24:16;8.80;;;2.50;;
22652;SDS011;11493;43.344;26.226;2022-09-09T06:26:46;10.68;;;2.33;;
22652;SDS011;11493;43.344;26.226;2022-09-09T06:29:20;8.63;;;3.15;;
22652;SDS011;11493;43.344;26.226;2022-09-09T06:31:47;8.95;;;2.80;;
22652;SDS011;11493;43.344;26.226;2022-09-09T06:34:19;14.55;;;3.20;;
22652;SDS011;11493;43.344;26.226;2022-09-09T06:36:51;19.27;;;3.60;;
22652;SDS011;11493;43.344;26.226;2022-09-09T06:39:19;18.77;;;3.97;;
22652;SDS011;11493;43.344;26.226;2022-09-09T06:41:46;11.38;;;3.10;;
22652;SDS011;11493;43.344;26.226;2022-09-09T06:44:32;7.03;;;2.88;;
22652;SDS011;11493;43.344;26.226;2022-09-09T06:47:03;8.23;;;2.17;;
22652;SDS011;11493;43.344;26.226;2022-09-09T06:49:32;4.53;;;2.03;;
22652;SDS011;11493;43.344;26.226;2022-09-09T06:52:01;3.65;;;1.90;;
22652;SDS011;11493;43.344;26.226;2022-09-09T06:54:28;3.35;;;2.03;;
22652;SDS011;11493;43.344;26.226;2022-09-09T06:56:57;3.25;;;2.00;;
22652;SDS011;11493;43.344;26.226;2022-09-09T06:59:24;4.65;;;2.28;;
22652;SDS011;11493;43.344;26.226;2022-09-09T07:01:54;4.90;;;1.58;;
22652;SDS011;11493;43.344;26.226;2022-09-09T07:04:23;7.78;;;2.30;;
22652;SDS011;11493;43.344;26.226;2022-09-09T07:06:51;7.38;;;2.20;;
22652;SDS011;11493;43.344;26.226;2022-09-09T07:09:24;9.50;;;2.38;;
22652;SDS011;11493;43.344;26.226;2022-09-09T07:11:52;8.00;;;1.77;;
22652;SDS011;11493;43.344;26.226;2022-09-09T07:14:23;4.43;;;1.90;;
22652;SDS011;11493;43.344;26.226;2022-09-09T07:19:26;4.38;;;1.75;;
22652;SDS011;11493;43.344;26.226;2022-09-09T07:21:54;6.93;;;1.65;;
22652;SDS011;11493;43.344;26.226;2022-09-09T07:24:24;7.40;;;2.28;;
22652;SDS011;11493;43.344;26.226;2022-09-09T07:26:51;7.35;;;2.10;;
22652;SDS011;11493;43.344;26.226;2022-09-09T07:29:19;8.52;;;2.53;;
22652;SDS011;11493;43.344;26.226;2022-09-09T07:31:49;5.90;;;2.20;;
22652;SDS011;11493;43.344;26.226;2022-09-09T07:34:22;4.13;;;1.92;;
22652;SDS011;11493;43.344;26.226;2022-09-09T07:36:50;6.43;;;2.22;;
22652;SDS011;11493;43.344;26.226;2022-09-09T07:39:18;5.60;;;1.80;;
22652;SDS011;11493;43.344;26.226;2022-09-09T07:41:49;3.83;;;2.23;;
22652;SDS011;11493;43.344;26.226;2022-09-09T07:44:22;6.75;;;2.10;;
22652;SDS011;11493;43.344;26.226;2022-09-09T07:47:05;5.03;;;1.65;;
22652;SDS011;11493;43.344;26.226;2022-09-09T07:49:36;2.90;;;1.70;;
22652;SDS011;11493;43.344;26.226;2022-09-09T07:52:06;5.18;;;1.80;;
22652;SDS011;11493;43.344;26.226;2022-09-09T07:54:42;2.83;;;1.92;;
22652;SDS011;11493;43.344;26.226;2022-09-09T07:57:13;3.17;;;2.45;;
22652;SDS011;11493;43.344;26.226;2022-09-09T07:59:42;9.98;;;1.88;;
22652;SDS011;11493;43.344;26.226;2022-09-09T08:02:09;4.57;;;1.70;;
22652;SDS011;11493;43.344;26.226;2022-09-09T08:04:36;6.28;;;1.65;;
22652;SDS011;11493;43.344;26.226;2022-09-09T08:07:04;3.08;;;1.80;;
22652;SDS011;11493;43.344;26.226;2022-09-09T08:09:40;3.90;;;1.80;;
22652;SDS011;11493;43.344;26.226;2022-09-09T08:12:14;11.43;;;1.80;;
22652;SDS011;11493;43.344;26.226;2022-09-09T08:14:41;10.48;;;2.38;;
22652;SDS011;11493;43.344;26.226;2022-09-09T08:17:09;8.82;;;4.13;;
22652;SDS011;11493;43.344;26.226;2022-09-09T08:19:37;2.97;;;1.80;;
22652;SDS011;11493;43.344;26.226;2022-09-09T08:22:12;11.05;;;4.10;;
22652;SDS011;11493;43.344;26.226;2022-09-09T08:24:39;8.10;;;1.98;;
22652;SDS011;11493;43.344;26.226;2022-09-09T08:27:08;5.03;;;1.80;;
22652;SDS011;11493;43.344;26.226;2022-09-09T08:29:37;6.22;;;1.85;;
22652;SDS011;11493;43.344;26.226;2022-09-09T08:32:05;4.68;;;1.90;;
22652;SDS011;11493;43.344;26.226;2022-09-09T08:34:34;8.50;;;1.98;;
22652;SDS011;11493;43.344;26.226;2022-09-09T08:37:11;5.45;;;1.80;;
22652;SDS011;11493;43.344;26.226;2022-09-09T08:39:39;2.45;;;1.55;;
22652;SDS011;11493;43.344;26.226;2022-09-09T08:48:38;2.38;;;1.92;;
22652;SDS011;11493;43.344;26.226;2022-09-09T08:50:42;3.72;;;1.67;;
22652;SDS011;11493;43.344;26.226;2022-09-09T08:53:20;5.35;;;1.80;;
22652;SDS011;11493;43.344;26.226;2022-09-09T08:55:56;3.20;;;1.65;;
22652;SDS011;11493;43.344;26.226;2022-09-09T08:58:35;4.50;;;2.03;;
22652;SDS011;11493;43.344;26.226;2022-09-09T09:13:20;7.38;;;2.13;;
22652;SDS011;11493;43.344;26.226;2022-09-09T09:16:56;6.35;;;1.90;;
22652;SDS011;11493;43.344;26.226;2022-09-09T09:19:14;8.13;;;1.95;;
22652;SDS011;11493;43.344;26.226;2022-09-09T09:21:53;6.78;;;2.10;;
22652;SDS011;11493;43.344;26.226;2022-09-09T09:32:59;3.53;;;1.70;;
22652;SDS011;11493;43.344;26.226;2022-09-09T09:35:43;7.40;;;1.92;;
22652;SDS011;11493;43.344;26.226;2022-09-09T09:38:18;4.63;;;1.95;;
22652;SDS011;11493;43.344;26.226;2022-09-09T09:41:10;3.67;;;2.00;;
22652;SDS011;11493;43.344;26.226;2022-09-09T09:43:37;6.68;;;1.98;;
22652;SDS011;11493;43.344;26.226;2022-09-09T09:46:21;4.90;;;1.83;;
22652;SDS011;11493;43.344;26.226;2022-09-09T09:49:12;3.13;;;1.40;;
22652;SDS011;11493;43.344;26.226;2022-09-09T09:51:42;3.67;;;1.75;;
22652;SDS011;11493;43.344;26.226;2022-09-09T09:57:07;3.78;;;1.90;;
22652;SDS011;11493;43.344;26.226;2022-09-09T09:59:41;7.28;;;2.05;;
22652;SDS011;11493;43.344;26.226;2022-09-09T10:02:24;4.20;;;2.33;;
22652;SDS011;11493;43.344;26.226;2022-09-09T10:05:17;3.83;;;1.73;;
22652;SDS011;11493;43.344;26.226;2022-09-09T10:08:10;6.95;;;1.98;;
22652;SDS011;11493;43.344;26.226;2022-09-09T10:14:00;3.72;;;1.65;;
22652;SDS011;11493;43.344;26.226;2022-09-09T10:16:28;4.65;;;1.83;;
22652;SDS011;11493;43.344;26.226;2022-09-09T10:19:21;7.10;;;1.92;;
22652;SDS011;11493;43.344;26.226;2022-09-09T10:32:45;4.88;;;1.88;;
22652;SDS011;11493;43.344;26.226;2022-09-09T10:38:10;3.88;;;1.80;;
22652;SDS011;11493;43.344;26.226;2022-09-09T10:48:31;9.27;;;1.98;;
22652;SDS011;11493;43.344;26.226;2022-09-09T10:53:47;5.35;;;1.55;;
22652;SDS011;11493;43.344;26.226;2022-09-09T10:58:48;8.77;;;1.85;;
22652;SDS011;11493;43.344;26.226;2022-09-09T11:01:44;6.68;;;2.03;;
22652;SDS011;11493;43.344;26.226;2022-09-09T11:04:17;2.97;;;1.48;;
22652;SDS011;11493;43.344;26.226;2022-09-09T11:06:54;4.32;;;2.00;;
22652;SDS011;11493;43.344;26.226;2022-09-09T11:09:23;6.38;;;2.10;;
22652;SDS011;11493;43.344;26.226;2022-09-09T11:11:56;4.82;;;1.55;;
22652;SDS011;11493;43.344;26.226;2022-09-09T11:14:29;4.50;;;1.58;;
22652;SDS011;11493;43.344;26.226;2022-09-09T11:17:05;7.45;;;1.63;;
22652;SDS011;11493;43.344;26.226;2022-09-09T11:19:42;6.72;;;1.40;;
22652;SDS011;11493;43.344;26.226;2022-09-09T11:24:57;7.05;;;2.03;;
22652;SDS011;11493;43.344;26.226;2022-09-09T11:42:07;4.07;;;1.90;;
22652;SDS011;11493;43.344;26.226;2022-09-09T11:44:50;4.47;;;1.90;;
22652;SDS011;11493;43.344;26.226;2022-09-09T11:47:23;32.50;;;3.25;;
22652;SDS011;11493;43.344;26.226;2022-09-09T11:50:08;8.35;;;2.00;;
22652;SDS011;11493;43.344;26.226;2022-09-09T11:56:01;5.60;;;2.10;;
22652;SDS011;11493;43.344;26.226;2022-09-09T11:58:36;5.70;;;2.15;;
22652;SDS011;11493;43.344;26.226;2022-09-09T12:01:25;11.85;;;1.60;;
22652;SDS011;11493;43.344;26.226;2022-09-09T12:04:10;4.15;;;1.80;;
22652;SDS011;11493;43.344;26.226;2022-09-09T12:06:54;2.90;;;2.03;;
22652;SDS011;11493;43.344;26.226;2022-09-09T12:19:42;6.60;;;1.80;;
22652;SDS011;11493;43.344;26.226;2022-09-09T12:22:14;9.50;;;1.70;;
22652;SDS011;11493;43.344;26.226;2022-09-09T12:33:38;4.05;;;1.65;;
22652;SDS011;11493;43.344;26.226;2022-09-09T12:36:13;2.78;;;1.52;;
22652;SDS011;11493;43.344;26.226;2022-09-09T12:38:44;7.25;;;1.55;;
22652;SDS011;11493;43.344;26.226;2022-09-09T12:41:26;3.47;;;1.50;;
22652;SDS011;11493;43.344;26.226;2022-09-09T12:44:04;7.00;;;1.70;;
22652;SDS011;11493;43.344;26.226;2022-09-09T12:46:50;6.63;;;1.80;;
22652;SDS011;11493;43.344;26.226;2022-09-09T12:49:24;4.25;;;1.63;;
22652;SDS011;11493;43.344;26.226;2022-09-09T12:51:54;6.30;;;1.75;;
22652;SDS011;11493;43.344;26.226;2022-09-09T12:54:24;9.43;;;1.65;;
22652;SDS011;11493;43.344;26.226;2022-09-09T12:56:51;9.13;;;1.60;;
22652;SDS011;11493;43.344;26.226;2022-09-09T12:59:26;4.40;;;1.60;;
22652;SDS011;11493;43.344;26.226;2022-09-09T13:02:02;7.80;;;1.80;;
22652;SDS011;11493;43.344;26.226;2022-09-09T13:04:38;4.90;;;1.73;;
22652;SDS011;11493;43.344;26.226;2022-09-09T13:07:06;6.35;;;1.80;;
22652;SDS011;11493;43.344;26.226;2022-09-09T13:09:36;4.43;;;2.53;;
22652;SDS011;11493;43.344;26.226;2022-09-09T13:12:04;6.07;;;1.80;;
22652;SDS011;11493;43.344;26.226;2022-09-09T13:14:37;4.25;;;2.20;;
22652;SDS011;11493;43.344;26.226;2022-09-09T13:17:05;18.20;;;3.63;;
22652;SDS011;11493;43.344;26.226;2022-09-09T13:19:35;7.65;;;2.47;;
22652;SDS011;11493;43.344;26.226;2022-09-09T13:22:12;10.48;;;2.65;;
22652;SDS011;11493;43.344;26.226;2022-09-09T13:24:41;6.85;;;2.08;;
22652;SDS011;11493;43.344;26.226;2022-09-09T13:27:28;7.72;;;1.85;;
22652;SDS011;11493;43.344;26.226;2022-09-09T13:29:58;6.40;;;1.90;;
22652;SDS011;11493;43.344;26.226;2022-09-09T13:32:27;17.80;;;2.60;;
22652;SDS011;11493;43.344;26.226;2022-09-09T13:34:58;6.82;;;2.40;;
22652;SDS011;11493;43.344;26.226;2022-09-09T13:37:33;8.15;;;2.78;;
22652;SDS011;11493;43.344;26.226;2022-09-09T13:40:04;22.95;;;2.17;;
22652;SDS011;11493;43.344;26.226;2022-09-09T13:42:34;5.95;;;2.05;;
22652;SDS011;11493;43.344;26.226;2022-09-09T13:45:05;13.98;;;2.63;;
22652;SDS011;11493;43.344;26.226;2022-09-09T13:47:43;18.05;;;2.78;;
22652;SDS011;11493;43.344;26.226;2022-09-09T13:50:20;8.27;;;2.33;;
22652;SDS011;11493;43.344;26.226;2022-09-09T13:52:48;11.18;;;3.13;;
22652;SDS011;11493;43.344;26.226;2022-09-09T13:55:23;5.63;;;2.80;;
22652;SDS011;11493;43.344;26.226;2022-09-09T14:00:19;4.22;;;2.80;;
22652;SDS011;11493;43.344;26.226;2022-09-09T14:02:47;8.73;;;3.50;;
22652;SDS011;11493;43.344;26.226;2022-09-09T14:05:16;17.95;;;3.78;;
22652;SDS011;11493;43.344;26.226;2022-09-09T14:07:46;20.50;;;4.28;;
22652;SDS011;11493;43.344;26.226;2022-09-09T14:10:18;20.58;;;4.13;;
22652;SDS011;11493;43.344;26.226;2022-09-09T14:12:46;15.48;;;3.65;;
22652;SDS011;11493;43.344;26.226;2022-09-09T14:15:14;8.65;;;2.90;;
22652;SDS011;11493;43.344;26.226;2022-09-09T14:17:41;27.90;;;4.28;;
22652;SDS011;11493;43.344;26.226;2022-09-09T14:20:09;41.38;;;4.10;;
22652;SDS011;11493;43.344;26.226;2022-09-09T14:22:38;52.35;;;4.78;;
22652;SDS011;11493;43.344;26.226;2022-09-09T14:25:06;19.17;;;3.70;;
22652;SDS011;11493;43.344;26.226;2022-09-09T14:27:33;11.07;;;2.90;;
22652;SDS011;11493;43.344;26.226;2022-09-09T14:30:01;16.10;;;2.97;;
22652;SDS011;11493;43.344;26.226;2022-09-09T14:32:28;11.30;;;2.85;;
22652;SDS011;11493;43.344;26.226;2022-09-09T14:34:56;10.75;;;3.58;;
22652;SDS011;11493;43.344;26.226;2022-09-09T14:37:23;19.10;;;3.13;;
22652;SDS011;11493;43.344;26.226;2022-09-09T14:39:50;49.47;;;4.63;;
22652;SDS011;11493;43.344;26.226;2022-09-09T14:42:18;17.05;;;3.42;;
22652;SDS011;11493;43.344;26.226;2022-09-09T14:44:45;5.38;;;3.40;;
22652;SDS011;11493;43.344;26.226;2022-09-09T14:47:13;14.30;;;3.95;;
22652;SDS011;11493;43.344;26.226;2022-09-09T14:49:40;18.95;;;2.70;;
22652;SDS011;11493;43.344;26.226;2022-09-09T14:52:12;4.82;;;1.92;;
22652;SDS011;11493;43.344;26.226;2022-09-09T14:54:40;4.82;;;1.63;;
22652;SDS011;11493;43.344;26.226;2022-09-09T14:57:07;4.78;;;1.90;;
22652;SDS011;11493;43.344;26.226;2022-09-09T14:59:34;3.40;;;2.17;;
22652;SDS011;11493;43.344;26.226;2022-09-09T15:02:01;15.63;;;2.30;;
22652;SDS011;11493;43.344;26.226;2022-09-09T15:04:31;7.60;;;1.88;;
22652;SDS011;11493;43.344;26.226;2022-09-09T15:06:58;6.50;;;2.22;;
22652;SDS011;11493;43.344;26.226;2022-09-09T15:09:26;6.57;;;2.22;;
22652;SDS011;11493;43.344;26.226;2022-09-09T15:11:53;9.70;;;2.10;;
22652;SDS011;11493;43.344;26.226;2022-09-09T15:14:20;3.88;;;1.77;;
22652;SDS011;11493;43.344;26.226;2022-09-09T15:16:51;5.88;;;1.77;;
22652;SDS011;11493;43.344;26.226;2022-09-09T15:19:18;4.32;;;2.08;;
22652;SDS011;11493;43.344;26.226;2022-09-09T15:21:45;4.70;;;2.03;;
22652;SDS011;11493;43.344;26.226;2022-09-09T15:24:13;4.25;;;2.30;;
22652;SDS011;11493;43.344;26.226;2022-09-09T15:26:40;7.38;;;2.28;;
22652;SDS011;11493;43.344;26.226;2022-09-09T15:29:07;12.18;;;3.67;;
22652;SDS011;11493;43.344;26.226;2022-09-09T15:31:35;10.60;;;3.65;;
22652;SDS011;11493;43.344;26.226;2022-09-09T15:34:03;13.18;;;2.95;;
22652;SDS011;11493;43.344;26.226;2022-09-09T15:36:33;9.90;;;3.13;;
22652;SDS011;11493;43.344;26.226;2022-09-09T15:39:03;13.83;;;3.83;;
22652;SDS011;11493;43.344;26.226;2022-09-09T15:41:32;16.83;;;4.20;;
22652;SDS011;11493;43.344;26.226;2022-09-09T15:44:00;15.90;;;3.92;;
22652;SDS011;11493;43.344;26.226;2022-09-09T15:51:32;6.40;;;3.80;;
22652;SDS011;11493;43.344;26.226;2022-09-09T15:54:10;17.65;;;4.70;;
22652;SDS011;11493;43.344;26.226;2022-09-09T15:56:44;14.73;;;4.25;;
22652;SDS011;11493;43.344;26.226;2022-09-09T15:59:13;18.65;;;4.57;;
22652;SDS011;11493;43.344;26.226;2022-09-09T16:01:41;26.98;;;4.82;;
22652;SDS011;11493;43.344;26.226;2022-09-09T16:04:10;22.40;;;5.00;;
22652;SDS011;11493;43.344;26.226;2022-09-09T16:06:38;18.42;;;4.57;;
22652;SDS011;11493;43.344;26.226;2022-09-09T16:09:06;14.55;;;4.43;;
22652;SDS011;11493;43.344;26.226;2022-09-09T16:11:35;9.65;;;4.78;;
22652;SDS011;11493;43.344;26.226;2022-09-09T16:14:04;22.02;;;4.90;;
22652;SDS011;11493;43.344;26.226;2022-09-09T16:16:33;17.55;;;6.15;;
22652;SDS011;11493;43.344;26.226;2022-09-09T16:19:03;23.15;;;5.65;;
22652;SDS011;11493;43.344;26.226;2022-09-09T16:24:02;46.95;;;8.25;;
22652;SDS011;11493;43.344;26.226;2022-09-09T16:26:32;30.58;;;7.30;;
22652;SDS011;11493;43.344;26.226;2022-09-09T16:29:00;17.70;;;6.53;;
22652;SDS011;11493;43.344;26.226;2022-09-09T16:31:29;41.38;;;8.85;;
22652;SDS011;11493;43.344;26.226;2022-09-09T16:34:00;14.13;;;5.50;;
22652;SDS011;11493;43.344;26.226;2022-09-09T16:36:30;12.30;;;5.32;;
22652;SDS011;11493;43.344;26.226;2022-09-09T16:39:01;31.48;;;6.32;;
22652;SDS011;11493;43.344;26.226;2022-09-09T16:41:35;8.77;;;4.18;;
22652;SDS011;11493;43.344;26.226;2022-09-09T16:44:05;14.48;;;4.50;;
22652;SDS011;11493;43.344;26.226;2022-09-09T16:46:35;8.05;;;4.22;;
22652;SDS011;11493;43.344;26.226;2022-09-09T16:49:10;14.75;;;5.10;;
22652;SDS011;11493;43.344;26.226;2022-09-09T16:51:41;14.35;;;5.45;;
22652;SDS011;11493;43.344;26.226;2022-09-09T16:54:14;15.82;;;5.47;;
22652;SDS011;11493;43.344;26.226;2022-09-09T16:56:44;9.57;;;6.82;;
22652;SDS011;11493;43.344;26.226;2022-09-09T16:59:14;28.50;;;10.65;;
22652;SDS011;11493;43.344;26.226;2022-09-09T17:01:43;21.90;;;8.45;;
22652;SDS011;11493;43.344;26.226;2022-09-09T17:04:13;8.70;;;6.05;;
22652;SDS011;11493;43.344;26.226;2022-09-09T17:06:48;12.50;;;5.60;;
22652;SDS011;11493;43.344;26.226;2022-09-09T17:09:16;10.77;;;5.60;;
22652;SDS011;11493;43.344;26.226;2022-09-09T17:11:45;15.48;;;5.07;;
22652;SDS011;11493;43.344;26.226;2022-09-09T17:14:15;17.33;;;5.65;;
22652;SDS011;11493;43.344;26.226;2022-09-09T17:16:45;8.10;;;4.22;;
22652;SDS011;11493;43.344;26.226;2022-09-09T17:19:13;7.90;;;3.90;;
22652;SDS011;11493;43.344;26.226;2022-09-09T17:21:41;9.93;;;4.05;;
22652;SDS011;11493;43.344;26.226;2022-09-09T17:24:29;24.45;;;5.88;;
22652;SDS011;11493;43.344;26.226;2022-09-09T17:26:56;13.50;;;6.45;;
22652;SDS011;11493;43.344;26.226;2022-09-09T17:29:24;15.00;;;6.65;;
22652;SDS011;11493;43.344;26.226;2022-09-09T17:31:52;18.60;;;5.70;;
22652;SDS011;11493;43.344;26.226;2022-09-09T17:34:21;14.45;;;5.65;;
22652;SDS011;11493;43.344;26.226;2022-09-09T17:36:49;15.77;;;4.90;;
22652;SDS011;11493;43.344;26.226;2022-09-09T17:39:16;17.80;;;5.35;;
22652;SDS011;11493;43.344;26.226;2022-09-09T17:41:43;9.85;;;3.95;;
22652;SDS011;11493;43.344;26.226;2022-09-09T17:44:12;51.20;;;7.60;;